sensor_id;sensor_type;location;lat;lon;timestamp;P1;durP1;ratioP1;P2;durP2;ratioP2
30647;SDS011;17683;53.360;9.736;2024-03-22T00:00:28;17.15;;;13.07;;
30647;SDS011;17683;53.360;9.736;2024-03-22T00:02:54;24.30;;;13.23;;
30647;SDS011;17683;53.360;9.736;2024-03-22T00:05:20;18.73;;;11.48;;
30647;SDS011;17683;53.360;9.736;2024-03-22T00:07:47;19.30;;;12.65;;
30647;SDS011;17683;53.360;9.736;2024-03-22T00:10:13;21.75;;;12.48;;
30647;SDS011;17683;53.360;9.736;2024-03-22T00:12:39;20.80;;;13.18;;
30647;SDS011;17683;53.360;9.736;2024-03-22T00:15:05;24.92;;;13.20;;
30647;SDS011;17683;53.360;9.736;2024-03-22T00:17:31;20.08;;;12.80;;
30647;SDS011;17683;53.360;9.736;2024-03-22T00:19:58;21.15;;;12.95;;
30647;SDS011;17683;53.360;9.736;2024-03-22T00:22:25;17.48;;;12.00;;
30647;SDS011;17683;53.360;9.736;2024-03-22T00:24:50;20.33;;;12.93;;
30647;SDS011;17683;53.360;9.736;2024-03-22T00:27:16;25.00;;;12.68;;
30647;SDS011;17683;53.360;9.736;2024-03-22T00:29:42;19.48;;;12.77;;
30647;SDS011;17683;53.360;9.736;2024-03-22T00:32:08;22.38;;;13.30;;
30647;SDS011;17683;53.360;9.736;2024-03-22T00:34:34;20.10;;;12.80;;
30647;SDS011;17683;53.360;9.736;2024-03-22T00:37:00;20.58;;;13.73;;
30647;SDS011;17683;53.360;9.736;2024-03-22T00:39:26;19.23;;;13.30;;
30647;SDS011;17683;53.360;9.736;2024-03-22T00:41:51;19.20;;;14.18;;
30647;SDS011;17683;53.360;9.736;2024-03-22T00:44:17;23.13;;;14.02;;
30647;SDS011;17683;53.360;9.736;2024-03-22T00:46:43;22.55;;;13.65;;
30647;SDS011;17683;53.360;9.736;2024-03-22T00:49:09;18.02;;;13.50;;
30647;SDS011;17683;53.360;9.736;2024-03-22T00:51:34;21.60;;;14.15;;
30647;SDS011;17683;53.360;9.736;2024-03-22T00:54:00;19.83;;;14.07;;
30647;SDS011;17683;53.360;9.736;2024-03-22T00:56:26;22.65;;;14.00;;
30647;SDS011;17683;53.360;9.736;2024-03-22T00:58:51;23.13;;;14.60;;
30647;SDS011;17683;53.360;9.736;2024-03-22T01:01:17;22.73;;;15.07;;
30647;SDS011;17683;53.360;9.736;2024-03-22T01:03:43;22.58;;;15.32;;
30647;SDS011;17683;53.360;9.736;2024-03-22T01:06:08;25.35;;;15.90;;
30647;SDS011;17683;53.360;9.736;2024-03-22T01:08:34;22.73;;;15.30;;
30647;SDS011;17683;53.360;9.736;2024-03-22T01:11:00;23.25;;;15.18;;
30647;SDS011;17683;53.360;9.736;2024-03-22T01:13:26;24.70;;;16.08;;
30647;SDS011;17683;53.360;9.736;2024-03-22T01:15:51;26.90;;;16.13;;
30647;SDS011;17683;53.360;9.736;2024-03-22T01:18:17;21.60;;;14.32;;
30647;SDS011;17683;53.360;9.736;2024-03-22T01:20:43;28.27;;;17.00;;
30647;SDS011;17683;53.360;9.736;2024-03-22T01:23:09;25.38;;;16.50;;
30647;SDS011;17683;53.360;9.736;2024-03-22T01:25:35;24.52;;;16.95;;
30647;SDS011;17683;53.360;9.736;2024-03-22T01:28:00;25.02;;;17.55;;
30647;SDS011;17683;53.360;9.736;2024-03-22T01:30:26;25.05;;;17.23;;
30647;SDS011;17683;53.360;9.736;2024-03-22T01:32:55;24.52;;;18.15;;
30647;SDS011;17683;53.360;9.736;2024-03-22T01:35:21;31.90;;;19.30;;
30647;SDS011;17683;53.360;9.736;2024-03-22T01:37:47;29.35;;;18.58;;
30647;SDS011;17683;53.360;9.736;2024-03-22T01:40:13;26.45;;;17.65;;
30647;SDS011;17683;53.360;9.736;2024-03-22T01:42:39;26.70;;;17.50;;
30647;SDS011;17683;53.360;9.736;2024-03-22T01:45:05;26.30;;;18.65;;
30647;SDS011;17683;53.360;9.736;2024-03-22T01:47:31;26.08;;;17.80;;
30647;SDS011;17683;53.360;9.736;2024-03-22T01:49:57;26.48;;;17.88;;
30647;SDS011;17683;53.360;9.736;2024-03-22T01:52:23;29.27;;;20.50;;
30647;SDS011;17683;53.360;9.736;2024-03-22T01:54:49;32.80;;;20.88;;
30647;SDS011;17683;53.360;9.736;2024-03-22T01:57:15;28.98;;;20.73;;
30647;SDS011;17683;53.360;9.736;2024-03-22T01:59:41;29.20;;;20.52;;
30647;SDS011;17683;53.360;9.736;2024-03-22T02:02:08;29.45;;;20.98;;
30647;SDS011;17683;53.360;9.736;2024-03-22T02:04:34;31.90;;;20.52;;
30647;SDS011;17683;53.360;9.736;2024-03-22T02:06:59;27.70;;;21.05;;
30647;SDS011;17683;53.360;9.736;2024-03-22T02:09:25;32.47;;;21.50;;
30647;SDS011;17683;53.360;9.736;2024-03-22T02:11:51;32.17;;;22.10;;
30647;SDS011;17683;53.360;9.736;2024-03-22T02:14:17;37.90;;;25.20;;
30647;SDS011;17683;53.360;9.736;2024-03-22T02:16:42;36.15;;;24.52;;
30647;SDS011;17683;53.360;9.736;2024-03-22T02:19:10;35.80;;;22.70;;
30647;SDS011;17683;53.360;9.736;2024-03-22T02:21:35;30.40;;;22.45;;
30647;SDS011;17683;53.360;9.736;2024-03-22T02:24:01;36.72;;;23.48;;
30647;SDS011;17683;53.360;9.736;2024-03-22T02:26:27;33.85;;;24.13;;
30647;SDS011;17683;53.360;9.736;2024-03-22T02:28:53;36.00;;;24.15;;
30647;SDS011;17683;53.360;9.736;2024-03-22T02:31:18;37.90;;;25.52;;
30647;SDS011;17683;53.360;9.736;2024-03-22T02:33:45;36.70;;;26.02;;
30647;SDS011;17683;53.360;9.736;2024-03-22T02:36:11;34.58;;;25.60;;
30647;SDS011;17683;53.360;9.736;2024-03-22T02:38:36;38.90;;;26.67;;
30647;SDS011;17683;53.360;9.736;2024-03-22T02:41:02;39.45;;;26.10;;
30647;SDS011;17683;53.360;9.736;2024-03-22T02:43:28;41.60;;;28.63;;
30647;SDS011;17683;53.360;9.736;2024-03-22T02:45:54;40.28;;;29.00;;
30647;SDS011;17683;53.360;9.736;2024-03-22T02:48:20;38.75;;;27.02;;
30647;SDS011;17683;53.360;9.736;2024-03-22T02:50:45;39.05;;;27.60;;
30647;SDS011;17683;53.360;9.736;2024-03-22T02:53:11;38.05;;;28.65;;
30647;SDS011;17683;53.360;9.736;2024-03-22T02:55:37;41.17;;;28.02;;
30647;SDS011;17683;53.360;9.736;2024-03-22T02:58:04;38.38;;;26.98;;
30647;SDS011;17683;53.360;9.736;2024-03-22T03:00:31;43.72;;;28.83;;
30647;SDS011;17683;53.360;9.736;2024-03-22T03:03:00;40.78;;;28.88;;
30647;SDS011;17683;53.360;9.736;2024-03-22T03:05:26;45.00;;;29.92;;
30647;SDS011;17683;53.360;9.736;2024-03-22T03:07:52;39.58;;;28.17;;
30647;SDS011;17683;53.360;9.736;2024-03-22T03:10:17;45.65;;;30.15;;
30647;SDS011;17683;53.360;9.736;2024-03-22T03:12:43;44.83;;;30.42;;
30647;SDS011;17683;53.360;9.736;2024-03-22T03:15:09;47.00;;;31.30;;
30647;SDS011;17683;53.360;9.736;2024-03-22T03:17:34;45.10;;;30.02;;
30647;SDS011;17683;53.360;9.736;2024-03-22T03:20:00;50.55;;;32.33;;
30647;SDS011;17683;53.360;9.736;2024-03-22T03:22:26;46.15;;;31.10;;
30647;SDS011;17683;53.360;9.736;2024-03-22T03:24:51;41.00;;;29.77;;
30647;SDS011;17683;53.360;9.736;2024-03-22T03:27:17;46.67;;;29.70;;
30647;SDS011;17683;53.360;9.736;2024-03-22T03:29:43;46.70;;;32.60;;
30647;SDS011;17683;53.360;9.736;2024-03-22T03:32:08;47.90;;;31.52;;
30647;SDS011;17683;53.360;9.736;2024-03-22T03:34:34;43.67;;;30.17;;
30647;SDS011;17683;53.360;9.736;2024-03-22T03:37:00;49.85;;;33.53;;
30647;SDS011;17683;53.360;9.736;2024-03-22T03:39:26;44.33;;;30.73;;
30647;SDS011;17683;53.360;9.736;2024-03-22T03:41:54;52.00;;;32.90;;
30647;SDS011;17683;53.360;9.736;2024-03-22T03:44:20;48.92;;;33.88;;
30647;SDS011;17683;53.360;9.736;2024-03-22T03:46:45;48.88;;;32.45;;
30647;SDS011;17683;53.360;9.736;2024-03-22T03:49:11;51.53;;;34.05;;
30647;SDS011;17683;53.360;9.736;2024-03-22T03:51:37;52.25;;;34.38;;
30647;SDS011;17683;53.360;9.736;2024-03-22T03:54:03;54.55;;;33.33;;
30647;SDS011;17683;53.360;9.736;2024-03-22T03:56:29;52.78;;;35.00;;
30647;SDS011;17683;53.360;9.736;2024-03-22T03:58:55;51.42;;;33.83;;
30647;SDS011;17683;53.360;9.736;2024-03-22T04:01:20;49.25;;;34.10;;
30647;SDS011;17683;53.360;9.736;2024-03-22T04:03:48;53.30;;;36.10;;
30647;SDS011;17683;53.360;9.736;2024-03-22T04:06:14;52.42;;;34.67;;
30647;SDS011;17683;53.360;9.736;2024-03-22T04:08:39;52.80;;;35.00;;
30647;SDS011;17683;53.360;9.736;2024-03-22T04:11:05;52.33;;;34.03;;
30647;SDS011;17683;53.360;9.736;2024-03-22T04:13:31;55.40;;;36.55;;
30647;SDS011;17683;53.360;9.736;2024-03-22T04:15:58;52.28;;;34.50;;
30647;SDS011;17683;53.360;9.736;2024-03-22T04:18:24;50.38;;;34.22;;
30647;SDS011;17683;53.360;9.736;2024-03-22T04:20:54;55.55;;;36.97;;
30647;SDS011;17683;53.360;9.736;2024-03-22T04:23:20;49.90;;;34.83;;
30647;SDS011;17683;53.360;9.736;2024-03-22T04:28:23;57.53;;;36.63;;
30647;SDS011;17683;53.360;9.736;2024-03-22T04:31:00;54.25;;;35.35;;
30647;SDS011;17683;53.360;9.736;2024-03-22T04:33:27;53.03;;;35.60;;
30647;SDS011;17683;53.360;9.736;2024-03-22T04:35:54;56.05;;;34.85;;
30647;SDS011;17683;53.360;9.736;2024-03-22T04:38:21;58.15;;;35.72;;
30647;SDS011;17683;53.360;9.736;2024-03-22T04:40:47;52.55;;;33.95;;
30647;SDS011;17683;53.360;9.736;2024-03-22T04:43:12;59.33;;;35.78;;
30647;SDS011;17683;53.360;9.736;2024-03-22T04:45:39;52.42;;;35.58;;
30647;SDS011;17683;53.360;9.736;2024-03-22T04:48:11;56.33;;;35.55;;
30647;SDS011;17683;53.360;9.736;2024-03-22T04:50:38;50.45;;;35.00;;
30647;SDS011;17683;53.360;9.736;2024-03-22T04:53:04;52.33;;;35.72;;
30647;SDS011;17683;53.360;9.736;2024-03-22T04:55:32;48.75;;;34.17;;
30647;SDS011;17683;53.360;9.736;2024-03-22T04:58:00;59.22;;;37.03;;
30647;SDS011;17683;53.360;9.736;2024-03-22T05:00:27;54.70;;;35.47;;
30647;SDS011;17683;53.360;9.736;2024-03-22T05:02:53;52.50;;;34.58;;
30647;SDS011;17683;53.360;9.736;2024-03-22T05:05:19;53.03;;;35.85;;
30647;SDS011;17683;53.360;9.736;2024-03-22T05:07:45;54.38;;;34.20;;
30647;SDS011;17683;53.360;9.736;2024-03-22T05:10:11;59.67;;;38.38;;
30647;SDS011;17683;53.360;9.736;2024-03-22T05:12:37;58.38;;;35.95;;
30647;SDS011;17683;53.360;9.736;2024-03-22T05:15:04;57.70;;;37.55;;
30647;SDS011;17683;53.360;9.736;2024-03-22T05:17:31;60.72;;;37.55;;
30647;SDS011;17683;53.360;9.736;2024-03-22T05:20:00;58.35;;;37.72;;
30647;SDS011;17683;53.360;9.736;2024-03-22T05:22:27;56.88;;;37.63;;
30647;SDS011;17683;53.360;9.736;2024-03-22T05:24:53;63.05;;;38.15;;
30647;SDS011;17683;53.360;9.736;2024-03-22T05:27:19;59.25;;;37.35;;
30647;SDS011;17683;53.360;9.736;2024-03-22T05:29:44;59.63;;;38.53;;
30647;SDS011;17683;53.360;9.736;2024-03-22T05:32:10;60.50;;;38.80;;
30647;SDS011;17683;53.360;9.736;2024-03-22T05:34:36;60.53;;;39.10;;
30647;SDS011;17683;53.360;9.736;2024-03-22T05:37:02;66.38;;;39.22;;
30647;SDS011;17683;53.360;9.736;2024-03-22T05:39:28;62.10;;;39.08;;
30647;SDS011;17683;53.360;9.736;2024-03-22T05:41:54;59.83;;;39.45;;
30647;SDS011;17683;53.360;9.736;2024-03-22T05:44:22;58.70;;;38.90;;
30647;SDS011;17683;53.360;9.736;2024-03-22T05:46:48;61.45;;;39.90;;
30647;SDS011;17683;53.360;9.736;2024-03-22T05:49:15;69.20;;;40.08;;
30647;SDS011;17683;53.360;9.736;2024-03-22T05:51:41;65.05;;;39.53;;
30647;SDS011;17683;53.360;9.736;2024-03-22T05:54:06;65.10;;;41.25;;
30647;SDS011;17683;53.360;9.736;2024-03-22T05:56:32;64.35;;;41.10;;
30647;SDS011;17683;53.360;9.736;2024-03-22T05:58:58;64.70;;;42.10;;
30647;SDS011;17683;53.360;9.736;2024-03-22T06:01:24;71.10;;;41.65;;
30647;SDS011;17683;53.360;9.736;2024-03-22T06:03:50;62.10;;;39.10;;
30647;SDS011;17683;53.360;9.736;2024-03-22T06:06:16;60.20;;;39.17;;
30647;SDS011;17683;53.360;9.736;2024-03-22T06:08:42;63.45;;;41.17;;
30647;SDS011;17683;53.360;9.736;2024-03-22T06:11:11;65.85;;;41.70;;
30647;SDS011;17683;53.360;9.736;2024-03-22T06:13:37;70.43;;;41.95;;
30647;SDS011;17683;53.360;9.736;2024-03-22T06:16:03;68.40;;;43.05;;
30647;SDS011;17683;53.360;9.736;2024-03-22T06:18:29;75.57;;;42.35;;
30647;SDS011;17683;53.360;9.736;2024-03-22T06:20:55;64.32;;;41.78;;
30647;SDS011;17683;53.360;9.736;2024-03-22T06:23:21;67.85;;;42.70;;
30647;SDS011;17683;53.360;9.736;2024-03-22T06:25:53;68.78;;;41.13;;
30647;SDS011;17683;53.360;9.736;2024-03-22T06:28:19;68.22;;;41.63;;
30647;SDS011;17683;53.360;9.736;2024-03-22T06:30:45;66.57;;;43.20;;
30647;SDS011;17683;53.360;9.736;2024-03-22T06:33:11;71.97;;;42.42;;
30647;SDS011;17683;53.360;9.736;2024-03-22T06:35:37;68.47;;;40.83;;
30647;SDS011;17683;53.360;9.736;2024-03-22T06:38:03;71.30;;;43.72;;
30647;SDS011;17683;53.360;9.736;2024-03-22T06:40:29;65.40;;;41.47;;
30647;SDS011;17683;53.360;9.736;2024-03-22T06:42:56;68.32;;;44.88;;
30647;SDS011;17683;53.360;9.736;2024-03-22T06:45:21;72.25;;;44.00;;
30647;SDS011;17683;53.360;9.736;2024-03-22T06:47:47;76.20;;;44.65;;
30647;SDS011;17683;53.360;9.736;2024-03-22T06:50:13;73.63;;;44.92;;
30647;SDS011;17683;53.360;9.736;2024-03-22T06:52:39;70.38;;;44.78;;
30647;SDS011;17683;53.360;9.736;2024-03-22T06:55:04;68.38;;;42.67;;
30647;SDS011;17683;53.360;9.736;2024-03-22T06:57:31;75.18;;;44.65;;
30647;SDS011;17683;53.360;9.736;2024-03-22T06:59:59;77.82;;;46.75;;
30647;SDS011;17683;53.360;9.736;2024-03-22T07:02:25;70.85;;;44.72;;
30647;SDS011;17683;53.360;9.736;2024-03-22T07:04:50;76.20;;;46.20;;
30647;SDS011;17683;53.360;9.736;2024-03-22T07:07:17;73.32;;;44.88;;
30647;SDS011;17683;53.360;9.736;2024-03-22T07:09:43;75.45;;;46.38;;
30647;SDS011;17683;53.360;9.736;2024-03-22T07:12:09;70.57;;;42.78;;
30647;SDS011;17683;53.360;9.736;2024-03-22T07:14:35;70.20;;;44.67;;
30647;SDS011;17683;53.360;9.736;2024-03-22T07:17:01;71.28;;;45.15;;
30647;SDS011;17683;53.360;9.736;2024-03-22T07:19:26;68.28;;;43.53;;
30647;SDS011;17683;53.360;9.736;2024-03-22T07:21:53;74.70;;;46.03;;
30647;SDS011;17683;53.360;9.736;2024-03-22T07:24:19;72.82;;;45.33;;
30647;SDS011;17683;53.360;9.736;2024-03-22T07:26:49;72.00;;;44.65;;
30647;SDS011;17683;53.360;9.736;2024-03-22T07:29:14;78.25;;;46.60;;
30647;SDS011;17683;53.360;9.736;2024-03-22T07:31:40;71.82;;;42.78;;
30647;SDS011;17683;53.360;9.736;2024-03-22T07:34:07;78.15;;;46.83;;
30647;SDS011;17683;53.360;9.736;2024-03-22T07:36:36;77.22;;;46.05;;
30647;SDS011;17683;53.360;9.736;2024-03-22T07:39:02;70.18;;;43.95;;
30647;SDS011;17683;53.360;9.736;2024-03-22T07:41:31;76.32;;;46.60;;
30647;SDS011;17683;53.360;9.736;2024-03-22T07:43:58;77.53;;;46.90;;
30647;SDS011;17683;53.360;9.736;2024-03-22T07:46:25;80.22;;;47.60;;
30647;SDS011;17683;53.360;9.736;2024-03-22T07:48:51;77.68;;;45.08;;
30647;SDS011;17683;53.360;9.736;2024-03-22T07:51:17;78.45;;;46.90;;
30647;SDS011;17683;53.360;9.736;2024-03-22T07:53:43;75.18;;;44.17;;
30647;SDS011;17683;53.360;9.736;2024-03-22T07:56:09;80.60;;;46.90;;
30647;SDS011;17683;53.360;9.736;2024-03-22T07:58:36;80.25;;;48.17;;
30647;SDS011;17683;53.360;9.736;2024-03-22T08:01:01;79.95;;;48.00;;
30647;SDS011;17683;53.360;9.736;2024-03-22T08:03:27;80.78;;;48.72;;
30647;SDS011;17683;53.360;9.736;2024-03-22T08:05:53;84.80;;;48.67;;
30647;SDS011;17683;53.360;9.736;2024-03-22T08:08:19;89.13;;;49.67;;
30647;SDS011;17683;53.360;9.736;2024-03-22T08:10:45;91.90;;;50.65;;
30647;SDS011;17683;53.360;9.736;2024-03-22T08:13:10;83.53;;;47.38;;
30647;SDS011;17683;53.360;9.736;2024-03-22T08:15:36;83.47;;;49.88;;
30647;SDS011;17683;53.360;9.736;2024-03-22T08:18:02;84.40;;;50.20;;
30647;SDS011;17683;53.360;9.736;2024-03-22T08:20:28;89.07;;;51.38;;
30647;SDS011;17683;53.360;9.736;2024-03-22T08:22:55;89.35;;;50.03;;
30647;SDS011;17683;53.360;9.736;2024-03-22T08:25:21;90.53;;;49.05;;
30647;SDS011;17683;53.360;9.736;2024-03-22T08:27:49;83.32;;;48.78;;
30647;SDS011;17683;53.360;9.736;2024-03-22T08:30:15;83.05;;;48.53;;
30647;SDS011;17683;53.360;9.736;2024-03-22T08:32:41;83.30;;;46.85;;
30647;SDS011;17683;53.360;9.736;2024-03-22T08:35:06;89.15;;;49.72;;
30647;SDS011;17683;53.360;9.736;2024-03-22T08:37:32;84.53;;;49.47;;
30647;SDS011;17683;53.360;9.736;2024-03-22T08:39:59;86.30;;;49.35;;
30647;SDS011;17683;53.360;9.736;2024-03-22T08:42:25;87.72;;;48.22;;
30647;SDS011;17683;53.360;9.736;2024-03-22T08:44:50;85.00;;;47.00;;
30647;SDS011;17683;53.360;9.736;2024-03-22T08:47:16;80.93;;;47.67;;
30647;SDS011;17683;53.360;9.736;2024-03-22T08:49:42;82.80;;;47.03;;
30647;SDS011;17683;53.360;9.736;2024-03-22T08:52:09;80.15;;;47.58;;
30647;SDS011;17683;53.360;9.736;2024-03-22T08:54:35;89.15;;;49.03;;
30647;SDS011;17683;53.360;9.736;2024-03-22T08:57:01;87.05;;;50.05;;
30647;SDS011;17683;53.360;9.736;2024-03-22T08:59:26;94.03;;;49.03;;
30647;SDS011;17683;53.360;9.736;2024-03-22T09:01:52;84.53;;;47.42;;
30647;SDS011;17683;53.360;9.736;2024-03-22T09:04:18;78.13;;;47.13;;
30647;SDS011;17683;53.360;9.736;2024-03-22T09:06:45;88.80;;;47.80;;
30647;SDS011;17683;53.360;9.736;2024-03-22T09:09:10;83.53;;;48.33;;
30647;SDS011;17683;53.360;9.736;2024-03-22T09:11:36;85.13;;;47.30;;
30647;SDS011;17683;53.360;9.736;2024-03-22T09:14:02;77.53;;;43.47;;
30647;SDS011;17683;53.360;9.736;2024-03-22T09:16:28;80.15;;;49.42;;
30647;SDS011;17683;53.360;9.736;2024-03-22T09:18:54;76.32;;;45.10;;
30647;SDS011;17683;53.360;9.736;2024-03-22T09:21:19;79.85;;;44.95;;
30647;SDS011;17683;53.360;9.736;2024-03-22T09:23:45;78.70;;;43.45;;
30647;SDS011;17683;53.360;9.736;2024-03-22T09:26:11;76.68;;;45.22;;
30647;SDS011;17683;53.360;9.736;2024-03-22T09:28:37;74.47;;;44.45;;
30647;SDS011;17683;53.360;9.736;2024-03-22T09:31:03;76.88;;;44.38;;
30647;SDS011;17683;53.360;9.736;2024-03-22T09:33:30;72.75;;;43.53;;
30647;SDS011;17683;53.360;9.736;2024-03-22T09:35:57;71.60;;;42.65;;
30647;SDS011;17683;53.360;9.736;2024-03-22T09:38:23;76.30;;;46.47;;
30647;SDS011;17683;53.360;9.736;2024-03-22T09:40:50;78.80;;;43.40;;
30647;SDS011;17683;53.360;9.736;2024-03-22T09:43:19;84.13;;;44.45;;
30647;SDS011;17683;53.360;9.736;2024-03-22T09:45:45;82.43;;;44.75;;
30647;SDS011;17683;53.360;9.736;2024-03-22T09:48:12;71.88;;;44.15;;
30647;SDS011;17683;53.360;9.736;2024-03-22T09:50:39;80.57;;;45.80;;
30647;SDS011;17683;53.360;9.736;2024-03-22T09:53:06;77.15;;;44.55;;
30647;SDS011;17683;53.360;9.736;2024-03-22T09:55:33;74.28;;;43.25;;
30647;SDS011;17683;53.360;9.736;2024-03-22T09:58:03;78.68;;;45.08;;
30647;SDS011;17683;53.360;9.736;2024-03-22T10:00:29;76.22;;;46.40;;
30647;SDS011;17683;53.360;9.736;2024-03-22T10:02:56;79.88;;;45.53;;
30647;SDS011;17683;53.360;9.736;2024-03-22T10:05:23;68.40;;;41.55;;
30647;SDS011;17683;53.360;9.736;2024-03-22T10:07:49;80.82;;;43.35;;
30647;SDS011;17683;53.360;9.736;2024-03-22T10:10:16;77.63;;;44.40;;
30647;SDS011;17683;53.360;9.736;2024-03-22T10:12:42;77.43;;;43.10;;
30647;SDS011;17683;53.360;9.736;2024-03-22T10:15:07;71.70;;;44.53;;
30647;SDS011;17683;53.360;9.736;2024-03-22T10:17:34;65.88;;;40.47;;
30647;SDS011;17683;53.360;9.736;2024-03-22T10:20:01;68.03;;;40.65;;
30647;SDS011;17683;53.360;9.736;2024-03-22T10:22:27;69.38;;;41.88;;
30647;SDS011;17683;53.360;9.736;2024-03-22T10:24:53;66.00;;;39.65;;
30647;SDS011;17683;53.360;9.736;2024-03-22T10:27:18;66.90;;;42.53;;
30647;SDS011;17683;53.360;9.736;2024-03-22T10:29:45;72.35;;;42.35;;
30647;SDS011;17683;53.360;9.736;2024-03-22T10:32:11;72.15;;;43.08;;
30647;SDS011;17683;53.360;9.736;2024-03-22T10:34:37;65.47;;;41.00;;
30647;SDS011;17683;53.360;9.736;2024-03-22T10:37:04;68.90;;;40.90;;
30647;SDS011;17683;53.360;9.736;2024-03-22T10:39:33;70.78;;;40.88;;
30647;SDS011;17683;53.360;9.736;2024-03-22T10:41:59;60.97;;;35.63;;
30647;SDS011;17683;53.360;9.736;2024-03-22T10:44:25;54.13;;;34.72;;
30647;SDS011;17683;53.360;9.736;2024-03-22T10:46:50;50.42;;;30.42;;
30647;SDS011;17683;53.360;9.736;2024-03-22T10:49:20;50.63;;;32.03;;
30647;SDS011;17683;53.360;9.736;2024-03-22T10:51:51;49.63;;;32.45;;
30647;SDS011;17683;53.360;9.736;2024-03-22T10:54:23;45.17;;;29.30;;
30647;SDS011;17683;53.360;9.736;2024-03-22T10:56:52;49.28;;;31.05;;
30647;SDS011;17683;53.360;9.736;2024-03-22T10:59:19;42.78;;;28.60;;
30647;SDS011;17683;53.360;9.736;2024-03-22T11:01:47;44.35;;;29.45;;
30647;SDS011;17683;53.360;9.736;2024-03-22T11:04:17;43.85;;;28.95;;
30647;SDS011;17683;53.360;9.736;2024-03-22T11:06:49;39.80;;;26.88;;
30647;SDS011;17683;53.360;9.736;2024-03-22T11:09:22;42.53;;;27.63;;
30647;SDS011;17683;53.360;9.736;2024-03-22T11:11:48;42.42;;;27.05;;
30647;SDS011;17683;53.360;9.736;2024-03-22T11:14:16;43.22;;;26.80;;
30647;SDS011;17683;53.360;9.736;2024-03-22T11:16:43;36.05;;;24.42;;
30647;SDS011;17683;53.360;9.736;2024-03-22T11:19:09;41.53;;;25.98;;
30647;SDS011;17683;53.360;9.736;2024-03-22T11:21:35;39.47;;;23.75;;
30647;SDS011;17683;53.360;9.736;2024-03-22T11:24:01;35.63;;;23.00;;
30647;SDS011;17683;53.360;9.736;2024-03-22T11:26:27;37.55;;;23.08;;
30647;SDS011;17683;53.360;9.736;2024-03-22T11:28:53;32.60;;;20.48;;
30647;SDS011;17683;53.360;9.736;2024-03-22T11:31:18;33.03;;;22.10;;
30647;SDS011;17683;53.360;9.736;2024-03-22T11:33:52;31.33;;;20.77;;
30647;SDS011;17683;53.360;9.736;2024-03-22T11:36:18;27.92;;;19.88;;
30647;SDS011;17683;53.360;9.736;2024-03-22T11:38:44;29.95;;;20.52;;
30647;SDS011;17683;53.360;9.736;2024-03-22T11:41:10;28.88;;;17.83;;
30647;SDS011;17683;53.360;9.736;2024-03-22T11:43:37;27.95;;;20.08;;
30647;SDS011;17683;53.360;9.736;2024-03-22T11:46:03;25.48;;;17.85;;
30647;SDS011;17683;53.360;9.736;2024-03-22T11:48:29;27.42;;;17.65;;
30647;SDS011;17683;53.360;9.736;2024-03-22T11:50:55;27.80;;;18.10;;
30647;SDS011;17683;53.360;9.736;2024-03-22T11:53:21;24.50;;;17.25;;
30647;SDS011;17683;53.360;9.736;2024-03-22T11:55:49;26.20;;;17.80;;
30647;SDS011;17683;53.360;9.736;2024-03-22T11:58:15;23.40;;;16.60;;
30647;SDS011;17683;53.360;9.736;2024-03-22T12:00:43;25.05;;;16.85;;
30647;SDS011;17683;53.360;9.736;2024-03-22T12:03:09;21.23;;;14.93;;
30647;SDS011;17683;53.360;9.736;2024-03-22T12:05:35;19.73;;;14.27;;
30647;SDS011;17683;53.360;9.736;2024-03-22T12:08:01;20.63;;;14.18;;
30647;SDS011;17683;53.360;9.736;2024-03-22T12:10:27;18.65;;;13.55;;
30647;SDS011;17683;53.360;9.736;2024-03-22T12:12:53;21.33;;;13.55;;
30647;SDS011;17683;53.360;9.736;2024-03-22T12:15:19;22.50;;;14.82;;
30647;SDS011;17683;53.360;9.736;2024-03-22T12:17:44;17.67;;;12.15;;
30647;SDS011;17683;53.360;9.736;2024-03-22T12:20:10;18.50;;;13.20;;
30647;SDS011;17683;53.360;9.736;2024-03-22T12:22:36;18.90;;;12.90;;
30647;SDS011;17683;53.360;9.736;2024-03-22T12:25:02;21.10;;;14.02;;
30647;SDS011;17683;53.360;9.736;2024-03-22T12:27:29;20.00;;;14.10;;
30647;SDS011;17683;53.360;9.736;2024-03-22T12:29:55;18.92;;;14.00;;
30647;SDS011;17683;53.360;9.736;2024-03-22T12:32:21;27.00;;;15.80;;
30647;SDS011;17683;53.360;9.736;2024-03-22T12:34:46;17.80;;;14.02;;
30647;SDS011;17683;53.360;9.736;2024-03-22T12:37:13;20.38;;;14.45;;
30647;SDS011;17683;53.360;9.736;2024-03-22T12:39:39;21.27;;;13.85;;
30647;SDS011;17683;53.360;9.736;2024-03-22T12:42:05;21.25;;;14.32;;
30647;SDS011;17683;53.360;9.736;2024-03-22T12:44:31;17.75;;;13.55;;
30647;SDS011;17683;53.360;9.736;2024-03-22T12:46:57;20.48;;;13.25;;
30647;SDS011;17683;53.360;9.736;2024-03-22T12:49:24;17.67;;;13.18;;
30647;SDS011;17683;53.360;9.736;2024-03-22T12:51:50;15.73;;;11.95;;
30647;SDS011;17683;53.360;9.736;2024-03-22T12:54:15;17.40;;;12.88;;
30647;SDS011;17683;53.360;9.736;2024-03-22T12:56:43;15.85;;;12.30;;
30647;SDS011;17683;53.360;9.736;2024-03-22T12:59:10;16.45;;;12.27;;
30647;SDS011;17683;53.360;9.736;2024-03-22T13:01:35;16.90;;;11.38;;
30647;SDS011;17683;53.360;9.736;2024-03-22T13:04:02;17.08;;;11.52;;
30647;SDS011;17683;53.360;9.736;2024-03-22T13:06:27;13.63;;;10.23;;
30647;SDS011;17683;53.360;9.736;2024-03-22T13:08:53;14.25;;;10.38;;
30647;SDS011;17683;53.360;9.736;2024-03-22T13:11:19;14.80;;;11.13;;
30647;SDS011;17683;53.360;9.736;2024-03-22T13:13:45;13.60;;;10.48;;
30647;SDS011;17683;53.360;9.736;2024-03-22T13:16:10;18.08;;;10.55;;
30647;SDS011;17683;53.360;9.736;2024-03-22T13:18:39;16.10;;;11.57;;
30647;SDS011;17683;53.360;9.736;2024-03-22T13:21:06;14.73;;;10.50;;
30647;SDS011;17683;53.360;9.736;2024-03-22T13:23:32;15.15;;;10.32;;
30647;SDS011;17683;53.360;9.736;2024-03-22T13:26:02;14.18;;;10.05;;
30647;SDS011;17683;53.360;9.736;2024-03-22T13:28:29;13.90;;;10.40;;
30647;SDS011;17683;53.360;9.736;2024-03-22T13:31:02;13.45;;;10.45;;
30647;SDS011;17683;53.360;9.736;2024-03-22T13:33:32;12.95;;;9.63;;
30647;SDS011;17683;53.360;9.736;2024-03-22T13:35:59;14.55;;;9.68;;
30647;SDS011;17683;53.360;9.736;2024-03-22T13:38:25;10.73;;;9.20;;
30647;SDS011;17683;53.360;9.736;2024-03-22T13:40:55;17.75;;;9.18;;
30647;SDS011;17683;53.360;9.736;2024-03-22T13:43:21;12.15;;;7.82;;
30647;SDS011;17683;53.360;9.736;2024-03-22T13:45:50;12.15;;;8.93;;
30647;SDS011;17683;53.360;9.736;2024-03-22T13:48:19;13.13;;;9.40;;
30647;SDS011;17683;53.360;9.736;2024-03-22T13:50:49;11.65;;;8.07;;
30647;SDS011;17683;53.360;9.736;2024-03-22T13:53:18;10.13;;;8.27;;
30647;SDS011;17683;53.360;9.736;2024-03-22T13:55:50;10.85;;;7.82;;
30647;SDS011;17683;53.360;9.736;2024-03-22T13:58:18;9.27;;;7.15;;
30647;SDS011;17683;53.360;9.736;2024-03-22T14:00:44;10.13;;;7.57;;
30647;SDS011;17683;53.360;9.736;2024-03-22T14:03:10;12.20;;;7.65;;
30647;SDS011;17683;53.360;9.736;2024-03-22T14:05:35;11.20;;;7.95;;
30647;SDS011;17683;53.360;9.736;2024-03-22T14:08:01;9.02;;;6.80;;
30647;SDS011;17683;53.360;9.736;2024-03-22T14:10:29;9.80;;;6.97;;
30647;SDS011;17683;53.360;9.736;2024-03-22T14:12:57;8.35;;;6.80;;
30647;SDS011;17683;53.360;9.736;2024-03-22T14:15:23;8.57;;;6.68;;
30647;SDS011;17683;53.360;9.736;2024-03-22T14:17:57;7.78;;;5.20;;
30647;SDS011;17683;53.360;9.736;2024-03-22T14:20:24;7.97;;;5.72;;